AKDT,Max TemperatureF,Mean TemperatureF,Min TemperatureF,Max Dew PointF,MeanDew PointF,Min DewpointF,Max Humidity, Mean Humidity, Min Humidity, Max Sea Level PressureIn, Mean Sea Level PressureIn, Min Sea Level PressureIn, Max VisibilityMiles, Mean VisibilityMiles, Min VisibilityMiles, Max Wind SpeedMPH, Mean Wind SpeedMPH, Max Gust SpeedMPH,PrecipitationIn, CloudCover, Events, WindDirDegrees
2013-8-1,80,66,51,52,49,43,96,60,28,30.07,30.00,29.90,10,10,10,8,1,,0.00,2,Fog,96
2013-8-2,82,66,50,51,48,41,92,52,23,29.92,29.86,29.77,10,10,10,7,3,,0.00,2,,117
2013-8-3,75,60,48,50,45,41,89,55,30,29.82,29.80,29.79,10,10,10,6,1,,0.00,4,Fog,246
2013-8-4,73,59,46,53,46,42,93,61,35,29.92,29.87,29.84,10,10,6,14,2,18,0.33,5,Fog-Rain,194
2013-8-5,73,62,51,53,48,43,96,64,35,29.95,29.93,29.90,10,10,10,5,1,,0.01,4,Fog,219
2013-8-6,77,62,46,51,46,40,93,59,26,30.02,29.96,29.88,10,10,10,13,4,21,0.00,3,Fog,125
2013-8-7,73,59,45,56,50,42,93,75,48,29.88,29.82,29.71,10,10,7,6,1,,0.04,4,Fog-Rain,146
2013-8-8,73,62,51,51,47,44,92,64,38,29.77,29.74,29.72,10,10,10,8,3,,0.00,4,,120
2013-8-9,75,60,45,48,45,41,97,61,31,29.80,29.76,29.69,10,10,10,7,2,,0.00,3,Fog,345
2013-8-10,75,60,46,49,47,44,93,65,40,29.98,29.86,29.79,10,10,10,14,2,20,0.00,4,,271
2013-8-11,79,62,46,57,48,44,90,62,36,30.04,29.98,29.91,10,10,6,7,1,,0.00,2,,115
2013-8-12,82,64,46,54,50,46,97,60,34,30.00,29.95,29.88,10,5,1,7,3,,0.00,1,Fog,311
2013-8-13,82,66,52,54,52,49,89,62,35,29.95,29.89,29.82,10,3,1,7,2,,0.00,2,,311
2013-8-14,82,64,46,52,48,45,93,60,29,29.86,29.80,29.72,10,8,4,10,2,20,0.00,1,Fog,321
2013-8-15,75,64,54,55,50,48,83,63,41,29.78,29.71,29.62,6,4,3,9,5,,0.00,3,,318
2013-8-16,75,64,53,52,49,45,90,65,35,29.68,29.63,29.57,10,6,1,8,3,,0.00,4,Thunderstorm,296
2013-8-17,57,54,50,54,52,46,96,88,69,29.61,29.55,29.47,10,8,5,6,0,,0.27,7,Rain,114
2013-8-18,59,54,52,54,52,49,100,91,75,29.59,29.48,29.44,10,8,3,10,2,18,0.02,8,Rain,315
2013-8-19,69,60,50,50,47,41,96,71,36,29.67,29.62,29.58,10,10,10,9,1,20,0.01,4,Rain,281
2013-8-20,57,52,46,48,46,43,93,81,59,29.79,29.75,29.68,10,10,10,5,1,,0.00,7,Rain,110
2013-8-21,55,50,44,46,44,42,100,83,64,29.87,29.81,29.76,10,10,8,9,3,,0.12,7,Rain,243
2013-8-22,64,54,44,45,43,41,97,71,46,29.76,29.70,29.62,10,10,10,10,2,23,0.00,5,,230
2013-8-23,55,50,46,49,47,44,97,87,69,29.61,29.56,29.51,10,9,2,7,3,,0.39,8,Rain,277
2013-8-24,57,47,37,46,39,33,100,75,47,29.90,29.71,29.55,10,10,9,13,7,23,0.05,6,Rain,330
2013-8-25,57,42,30,40,33,28,89,68,43,29.94,29.88,29.81,10,10,10,8,3,,0.00,4,,101
2013-8-26,61,46,32,40,37,31,100,72,38,29.86,29.83,29.81,10,10,9,6,0,,0.00,3,Fog-Snow,88
2013-8-27,64,47,30,39,35,29,100,69,34,29.89,29.82,29.73,10,9,0,7,2,,0.00,2,Fog-Snow,102
2013-8-28,64,52,43,45,42,37,93,69,53,29.73,29.70,29.68,10,10,10,6,2,,0.00,4,,267
2013-8-29,69,54,41,47,44,39,100,81,42,29.81,29.72,29.67,10,6,0,6,1,,0.00,5,Fog-Rain,238
2013-8-30,60,50,42,47,44,40,93,79,59,29.93,29.89,29.81,10,10,10,9,2,,0.02,6,Rain,324
2013-8-31,52,46,42,45,43,41,100,90,68,29.95,29.90,29.84,10,9,4,7,4,,0.27,8,Rain,318